Lake Wildwood, California
Current Conditions -  °F | °C
As of 12:40 AM on Saturday 29 Nov 2014 (Local Time) from KGOO Reporting Station
Overcast Overcast  
Wind Chill: 36°   Ceiling: 2000
Heat Index: 43°   Visibility: 2.5mi
Dew Point: 41°   Wind: 14mph
Humidity: 93%   Direction: 110°ESE
Pressure: 29.88"   Gusts: 18mph
Location:  39.1921°N, 121.19°W
Report Text: KGOO 290840Z AUTO 11012G16KT 2 1/2SM OVC020 06/05 A2988 RMK AO1
Loading
Personal Weather Stations






























Interactive Weather Map New forecast layout! Learn more

10-Day Weather Forecast

Advertisements
Track Severe Weather on mobile